Página principal
METAR-TAF:

METAR-TAF

Aeroportos :

Childress, Texas, Estados Unidos

latitude: 34-25-39N, longitude: 100-17-00W, altura: 595 m

Observação actual do tempo

O boletim foi feito há 1 hora e 5 minutos, às 20:53 UTC
Vento 4 kt de oes-sudoeste
Temperatura 8°C
Humidade 34%
Pressão 1027 hPa
Visibilidade: 16.1 km
Céu limpo

METAR: KCDS 092053Z AUTO 25004KT 10SM CLR 08/M07 A3034 RMK AO2 SLP282 T00831067 56018

Hora: 15:58 (21:58 UTC)

Previsão

O boletim foi feito há 4 horas e 38 minutos, às 17:20 UTC
Previsão válida de 09 às 18 UTC a 10 às 18 UTC
Vento 5 kt de oeste
Visibilidade: 10 km
Poucas nuvensa uma altura de 25000 ft

TAF: KCDS 091720Z 0918/1018 28005KT P6SM FEW250

Observações e previsões do tempo de mais de 4000 aeroportos (mensagens METAR e TAF).

As estações disponíveis são os pontos amarelos e vermelhos sobre o mapa.

Mova o rato sobre o mapa para ver o nome da estação.

Depois clique no ponto para visualizar as observações e previsões meteorológicas.

Para alterar o mapa : clique nos botões verdes com uma cruz preta para aumentar o zoom; no botão verde com uma pitada de zoom; ou nas setas verdes para mapas adjacentes.


METAR-TAF: